M I D A S
Marine Information and Data Acquisition System
Tripno 457 of the Zeeleeuw from 2003-04-01 06:32:29 to 2003-04-01 11:04:48
Back to CruiseResearch ActivitiesStationsMapUnderway DataData graphs

EquipmentUnitsComment
TimeDGPSUTC
LatitudeDGPSDM.mWGS84
LongitudeDGPSDM.mWGS84
TemperatureSBE03/SBE38deg celciusITS90
ConductivitySBE21S/mITS90
SalinitySBE21 Practical Salinity Units
ChlorophylAChelsea fluorimeterg/lCalibrated in Aceton
Missing or incorrect values are displayed as -999
Sea surface data collected by the RV Zeeleeuw from 2003-04-01 06:32:29 to 2003-04-01 11:04:48
Time Latitude Longitude Temperature Conductivity Salinity ChlorophylA
2003-04-01 06:33:31 51°13.636 2°55.965 -999 1.15904 7.697802 -0.612702
2003-04-01 06:34:32 51°13.662 2°55.886 -999 1.158621 7.696812 -0.646411
2003-04-01 06:35:32 51°13.669 2°55.809 -999 1.158307 7.694291 -0.646411
2003-04-01 06:36:32 51°13.669 2°55.759 -999 1.157993 7.692576 -0.646411
2003-04-01 06:37:32 51°13.689 2°55.77 -999 1.157784 7.691745 -0.646411
2003-04-01 06:38:32 51°13.688 2°55.764 -999 1.157679 7.690457 -0.646411
2003-04-01 06:39:32 51°13.731 2°55.725 -999 1.156946 7.6848 -0.612702
2003-04-01 06:40:32 51°13.82 2°55.641 -999 1.157156 7.689117 -0.646411
2003-04-01 06:41:32 51°13.931 2°55.556 -999 1.157051 7.685417 -0.646411
2003-04-01 06:42:31 51°14.049 2°55.472 -999 1.156842 7.684451 -0.612702
2003-04-01 06:43:32 51°14.177 2°55.371 -999 1.156737 7.683969 -0.646411
2003-04-01 06:44:32 51°14.28 2°55.232 -999 1.156527 7.683539 -0.646411
2003-04-01 06:45:32 51°14.369 2°55.061 -999 1.156423 7.682386 -0.612702
2003-04-01 06:46:32 51°14.502 2°54.898 -999 1.156213 7.680885 -0.646411
2003-04-01 06:47:32 51°14.664 2°54.716 -999 1.156109 7.681876 -0.612702
2003-04-01 06:48:32 51°14.83 2°54.53 -999 1.156109 7.68201 -0.612702
2003-04-01 06:49:32 51°14.999 2°54.351 -999 1.156109 7.682412 -0.646411
2003-04-01 06:50:32 51°15.164 2°54.172 -999 1.156109 7.683351 -0.646411
2003-04-01 06:51:32 51°15.336 2°53.991 -999 1.155899 7.682385 -0.612702
2003-04-01 06:52:32 51°15.515 2°53.806 -999 1.155899 7.682653 -0.646411
2003-04-01 06:53:31 51°15.702 2°53.616 -999 1.156109 7.68496 -0.612702
2003-04-01 06:54:32 51°15.905 2°53.416 -999 1.155795 7.683377 -0.612702
2003-04-01 06:55:32 51°16.109 2°53.234 -999 1.155585 7.682411 -0.612702
2003-04-01 06:56:32 51°16.315 2°53.055 -999 1.155376 7.681981 -0.612702
2003-04-01 06:57:32 51°16.52 2°52.884 -999 1.155481 7.683672 -0.646411
2003-04-01 06:58:32 51°16.728 2°52.727 -999 1.155376 7.68386 -0.646411
2003-04-01 06:59:32 51°16.921 2°52.574 -999 1.155376 7.684799 -0.612702
2003-04-01 07:00:32 51°17.119 2°52.426 -999 1.155167 7.683699 -0.578993
2003-04-01 07:01:32 51°17.315 2°52.265 -999 1.154853 7.682115 -0.680121
2003-04-01 07:02:32 51°17.516 2°52.113 -999 1.154853 7.682786 -0.680121
2003-04-01 07:03:32 51°17.718 2°51.961 -999 1.154643 7.681819 -0.680121
2003-04-01 07:04:32 51°17.916 2°51.808 -999 1.154748 7.683511 -0.680121
2003-04-01 07:05:32 51°18.116 2°51.654 -999 1.154539 7.682678 -0.680121
2003-04-01 07:06:32 51°18.322 2°51.492 -999 1.154539 7.68335 -0.680121
2003-04-01 07:07:32 51°18.527 2°51.329 -999 1.154225 7.6819 -0.646411
2003-04-01 07:08:32 51°18.735 2°51.162 -999 1.154329 7.683592 -0.646411
2003-04-01 07:09:32 51°18.941 2°50.994 -999 1.15412 7.683028 -0.680121
2003-04-01 07:10:32 51°19.138 2°50.804 -999 1.153701 7.680691 -0.680121
2003-04-01 07:11:32 51°19.324 2°50.582 -999 1.153596 7.680207 -0.680121
2003-04-01 07:12:32 51°19.511 2°50.364 -999 1.153596 7.681148 -0.646411
2003-04-01 07:13:32 51°19.699 2°50.138 -999 1.153596 7.68182 -0.680121
2003-04-01 07:14:32 51°19.792 2°49.789 -999 1.153282 7.681175 -0.646411
2003-04-01 07:15:32 51°19.795 2°49.391 -999 1.152968 7.678782 -0.680121
2003-04-01 07:16:32 51°19.786 2°48.991 -999 1.152968 7.67932 -0.680121
2003-04-01 07:17:32 51°19.778 2°48.591 -999 1.152864 7.680046 -0.646411
2003-04-01 07:18:31 51°19.768 2°48.198 -999 1.152759 7.6801 -0.680121
2003-04-01 07:19:32 51°19.759 2°47.794 -999 1.152654 7.680288 -0.680121
2003-04-01 07:20:32 51°19.749 2°47.396 -999 1.152654 7.68123 -0.680121
2003-04-01 07:21:32 51°19.739 2°46.994 -999 1.152445 7.680935 -0.646411
2003-04-01 07:22:32 51°19.727 2°46.592 -999 1.152759 7.68481 -0.680121
2003-04-01 07:23:32 51°19.715 2°46.188 -999 1.152654 7.685538 -0.680121
2003-04-01 07:24:32 51°19.705 2°45.788 -999 1.152864 7.688932 -0.680121
2003-04-01 07:25:32 51°19.697 2°45.389 -999 1.152969 7.691708 -0.680121
2003-04-01 07:26:32 51°19.614 2°45.015 -999 1.153073 7.696107 -0.612702
2003-04-01 07:27:32 51°19.453 2°44.713 -999 1.153073 7.696377 -0.646411
2003-04-01 07:28:32 51°19.282 2°44.426 -999 1.153073 7.698674 -0.680121
2003-04-01 07:29:32 51°19.125 2°44.154 -999 1.152969 7.701029 -0.680121
2003-04-01 07:30:32 51°19.033 2°43.965 -999 1.152969 7.703735 -0.646411
2003-04-01 07:31:31 51°18.969 2°43.847 -999 1.15255 7.704099 -0.646411
2003-04-01 07:32:33 51°18.936 2°43.775 -999 1.152236 7.701427 -0.646411
2003-04-01 07:33:32 51°18.934 2°43.768 17.147494 1.151922 7.700921 -0.646411
2003-04-01 07:34:31 51°18.935 2°43.746 17.084354 1.151503 7.699388 -0.646411
2003-04-01 07:35:33 51°18.936 2°43.722 17.565779 1.151294 7.698148 -0.646411
2003-04-01 07:36:32 51°18.938 2°43.7 17.18808 1.15098 7.696422 -0.680121
2003-04-01 07:37:32 51°18.936 2°43.689 17.189807 1.150456 7.693185 -0.680121
2003-04-01 07:38:33 51°18.926 2°43.683 17.467362 1.150352 7.692971 -0.646411
2003-04-01 07:39:32 51°18.912 2°43.675 17.504364 1.149933 7.691031 -0.680121
2003-04-01 07:40:32 51°18.898 2°43.667 17.611564 1.14941 7.687657 -0.646411
2003-04-01 07:41:33 51°18.889 2°43.658 17.134381 1.14941 7.688063 -0.680121
2003-04-01 07:42:31 51°18.886 2°43.646 17.757513 1.149095 7.686066 -0.646411
2003-04-01 07:43:31 51°18.891 2°43.628 17.487753 1.148781 7.684475 -0.680121
2003-04-01 07:44:32 51°18.905 2°43.607 17.182055 1.148572 7.682963 -0.646411
2003-04-01 07:45:32 51°18.924 2°43.595 16.911003 1.148467 7.683154 -0.646411
2003-04-01 07:46:32 51°18.939 2°43.602 17.228474 1.148153 7.681697 -0.646411
2003-04-01 07:47:31 51°18.94 2°43.622 17.130628 1.147944 7.681808 -0.646411
2003-04-01 07:48:32 51°18.93 2°43.645 17.067811 1.147735 7.681243 -0.680121
2003-04-01 07:49:32 51°18.909 2°43.657 17.351994 1.14763 7.680893 -0.680121
2003-04-01 07:50:32 51°18.885 2°43.661 17.188206 1.147421 7.679921 -0.680121
2003-04-01 07:51:32 51°18.85 2°43.661 17.446168 1.147211 7.678814 -0.646411
2003-04-01 07:52:31 51°18.794 2°43.595 17.28475 1.147002 7.677301 -0.646411
2003-04-01 07:53:32 51°18.768 2°43.437 17.461739 1.146688 7.678008 -0.646411
2003-04-01 07:54:32 51°18.747 2°43.234 17.469377 1.146478 7.676766 -0.646411
2003-04-01 07:55:32 51°18.725 2°43.018 17.20034 1.146374 7.675874 -0.646411
2003-04-01 07:56:32 51°18.707 2°42.797 17.82743 1.146164 7.674902 -0.680121
2003-04-01 07:57:33 51°18.69 2°42.572 17.459263 1.145955 7.674065 -0.646411
2003-04-01 07:58:32 51°18.673 2°42.352 17.435337 1.14585 7.673985 -0.680121
2003-04-01 07:59:32 51°18.66 2°42.129 17.098868 1.145641 7.673012 -0.646411
2003-04-01 08:00:33 51°18.644 2°41.899 17.555889 1.145641 7.673554 -0.680121
2003-04-01 08:01:32 51°18.628 2°41.675 17.187406 1.145536 7.673609 -0.680121
2003-04-01 08:02:33 51°18.613 2°41.445 17.30019 1.145432 7.673664 -0.646411
2003-04-01 08:03:32 51°18.598 2°41.222 17.380024 1.145327 7.673719 -0.646411
2003-04-01 08:04:33 51°18.59 2°40.999 17.700032 1.145118 7.673152 -0.646411
2003-04-01 08:05:32 51°18.646 2°40.898 17.720605 1.145118 7.673559 -0.680121
2003-04-01 08:06:33 51°18.705 2°40.867 17.107432 1.144908 7.674753 -0.680121
2003-04-01 08:07:32 51°18.738 2°40.87 17.597534 1.144804 7.674131 -0.680121
2003-04-01 08:08:33 51°18.743 2°40.867 17.708898 1.144594 7.672209 -0.680121
2003-04-01 08:09:32 51°18.743 2°40.869 17.61885 1.144699 7.674051 -0.680121
2003-04-01 08:10:31 51°18.744 2°40.874 17.870372 1.144594 7.673158 -0.680121
2003-04-01 08:11:32 51°18.741 2°40.875 17.334085 1.144385 7.671914 -0.646411
2003-04-01 08:12:31 51°18.737 2°40.871 17.382335 1.14428 7.672104 -0.612702
2003-04-01 08:13:32 51°18.73 2°40.858 17.498198 1.144071 7.671402 -0.646411
2003-04-01 08:14:31 51°18.72 2°40.852 17.821877 1.143966 7.670915 -0.680121
2003-04-01 08:15:32 51°18.709 2°40.849 17.561421 1.143966 7.671864 -0.646411
2003-04-01 08:16:32 51°18.695 2°40.848 17.475587 1.143652 7.669861 -0.71383
2003-04-01 08:17:32 51°18.68 2°40.843 17.48876 1.143757 7.671161 -0.646411
2003-04-01 08:18:32 51°18.664 2°40.837 17.777902 1.143443 7.669565 -0.680121
2003-04-01 08:19:32 51°18.65 2°40.831 17.828431 1.143233 7.668727 -0.646411
2003-04-01 08:20:32 51°18.636 2°40.825 17.672968 1.143233 7.668998 -0.71383
2003-04-01 08:21:32 51°18.619 2°40.819 17.38015 1.142919 7.66713 -0.646411
2003-04-01 08:22:32 51°18.601 2°40.813 18.11296 1.142919 7.667537 -0.680121
2003-04-01 08:23:32 51°18.579 2°40.81 17.819665 1.14271 7.666292 -0.680121
2003-04-01 08:24:33 51°18.542 2°40.797 17.874669 1.142501 7.665724 -0.680121
2003-04-01 08:25:32 51°18.505 2°40.756 17.538034 1.142501 7.666402 -0.680121
2003-04-01 08:26:32 51°18.477 2°40.695 17.962176 1.142291 7.665021 -0.680121
2003-04-01 08:27:32 51°18.487 2°40.622 17.910535 1.142187 7.66494 -0.680121
2003-04-01 08:28:32 51°18.538 2°40.623 17.990752 1.142082 7.664724 -0.680121
2003-04-01 08:29:32 51°18.511 2°40.725 18.000454 1.142291 7.667325 -0.680121
2003-04-01 08:30:32 51°18.421 2°40.817 18.25097 1.142187 7.66738 -0.646411
2003-04-01 08:31:32 51°18.316 2°40.905 18.160711 1.142187 7.667109 -0.680121
2003-04-01 08:32:33 51°18.207 2°40.996 17.867535 1.142187 7.666973 -0.646411
2003-04-01 08:33:32 51°18.085 2°41.031 17.605953 1.141977 7.665592 -0.646411
2003-04-01 08:34:32 51°17.957 2°40.994 18.096744 1.141768 7.664889 -0.646411
2003-04-01 08:35:32 51°17.839 2°40.909 18.039419 1.141873 7.666325 -0.646411
2003-04-01 08:36:32 51°17.737 2°40.827 17.790392 1.141663 7.66535 -0.680121
2003-04-01 08:37:32 51°17.641 2°40.747 17.925669 1.141663 7.66535 -0.680121
2003-04-01 08:38:32 51°17.55 2°40.676 18.345877 1.141559 7.665134 -0.680121
2003-04-01 08:39:32 51°17.463 2°40.604 18.63036 1.141663 7.666436 -0.680121
2003-04-01 08:40:32 51°17.379 2°40.533 18.251261 1.141768 7.668144 -0.646411
2003-04-01 08:41:32 51°17.296 2°40.465 18.07674 1.141663 7.6682 -0.646411
2003-04-01 08:42:31 51°17.213 2°40.397 17.780075 1.141663 7.669014 -0.680121
2003-04-01 08:43:32 51°17.129 2°40.33 17.447385 1.141454 7.668582 -0.71383
2003-04-01 08:44:32 51°17.049 2°40.267 18.140102 1.141559 7.670292 -0.646411
2003-04-01 08:45:32 51°16.974 2°40.203 18.049698 1.141454 7.670484 -0.680121
2003-04-01 08:46:32 51°16.902 2°40.133 18.332493 1.141349 7.670947 -0.680121
2003-04-01 08:47:32 51°16.829 2°40.068 18.344883 1.141349 7.671763 -0.71383
2003-04-01 08:48:32 51°16.757 2°40 18.050239 1.141454 7.673202 -0.71383
2003-04-01 08:49:32 51°16.681 2°39.929 18.399969 1.141245 7.672635 -0.680121
2003-04-01 08:50:31 51°16.622 2°39.873 18.139146 1.141035 7.671795 -0.646411
2003-04-01 08:51:33 51°16.58 2°39.815 18.353252 1.140931 7.671987 -0.680121
2003-04-01 08:52:32 51°16.548 2°39.763 18.061764 1.140826 7.671907 -0.680121
2003-04-01 08:53:33 51°16.518 2°39.714 18.103231 1.140617 7.671068 -0.646411
2003-04-01 08:54:32 51°16.493 2°39.673 18.520633 1.140617 7.671612 -0.71383
2003-04-01 08:55:32 51°16.473 2°39.651 18.190367 1.140512 7.671396 -0.680121
2003-04-01 08:56:32 51°16.458 2°39.64 18.132372 1.140407 7.67118 -0.646411
2003-04-01 08:57:32 51°16.453 2°39.634 18.550302 1.140303 7.670964 -0.680121
2003-04-01 08:58:32 51°16.447 2°39.626 17.9468 1.140407 7.671588 -0.71383
2003-04-01 08:59:32 51°16.44 2°39.621 18.261591 1.140093 7.669716 -0.680121
2003-04-01 09:00:32 51°16.43 2°39.618 18.508233 1.139989 7.669636 -0.646411
2003-04-01 09:01:31 51°16.418 2°39.618 18.41599 1.13957 7.667004 -0.680121
2003-04-01 09:02:33 51°16.408 2°39.617 18.897944 1.13957 7.667684 -0.680121
2003-04-01 09:03:32 51°16.396 2°39.615 18.231218 1.139675 7.668852 -0.680121
2003-04-01 09:04:32 51°16.381 2°39.613 18.036131 1.139361 7.666571 -0.71383
2003-04-01 09:05:32 51°16.365 2°39.612 18.080234 1.139361 7.666979 -0.680121
2003-04-01 09:06:32 51°16.351 2°39.611 17.919166 1.139046 7.665243 -0.680121
2003-04-01 09:07:32 51°16.336 2°39.609 17.996832 1.139046 7.665379 -0.680121
2003-04-01 09:08:32 51°16.322 2°39.609 18.245037 1.139046 7.665515 -0.646411
2003-04-01 09:09:32 51°16.308 2°39.611 18.729614 1.138942 7.66489 -0.680121
2003-04-01 09:10:31 51°16.293 2°39.613 18.705628 1.138628 7.662881 -0.680121
2003-04-01 09:11:32 51°16.278 2°39.614 18.272335 1.138523 7.662665 -0.680121
2003-04-01 09:12:33 51°16.262 2°39.614 18.755857 1.138418 7.662176 -0.680121
2003-04-01 09:13:32 51°16.248 2°39.616 18.460844 1.138628 7.664105 -0.680121
2003-04-01 09:14:31 51°16.235 2°39.619 18.2652 1.138418 7.662856 -0.680121
2003-04-01 09:15:32 51°16.22 2°39.624 17.899777 1.138628 7.664514 -0.680121
2003-04-01 09:16:32 51°16.204 2°39.627 17.87421 1.138418 7.663129 -0.680121
2003-04-01 09:17:33 51°16.186 2°39.631 17.780868 1.138418 7.663673 -0.680121
2003-04-01 09:18:32 51°16.17 2°39.634 18.505298 1.138209 7.662288 -0.680121
2003-04-01 09:19:31 51°16.157 2°39.639 18.072164 1.138209 7.662696 -0.680121
2003-04-01 09:20:32 51°16.143 2°39.644 18.352424 1.137895 7.66055 -0.680121
2003-04-01 09:21:32 51°16.129 2°39.649 18.529064 1.137895 7.660822 -0.680121
2003-04-01 09:22:32 51°16.114 2°39.653 18.842222 1.138 7.661719 -0.646411
2003-04-01 09:23:32 51°16.099 2°39.66 18.782626 1.137686 7.659573 -0.646411
2003-04-01 09:24:32 51°16.083 2°39.668 17.771009 1.13779 7.660333 -0.680121
2003-04-01 09:25:31 51°16.068 2°39.674 18.696765 1.137895 7.661366 -0.680121
2003-04-01 09:26:32 51°16.053 2°39.682 18.537866 1.137581 7.659356 -0.680121
2003-04-01 09:27:32 51°16.036 2°39.687 19.150416 1.137895 7.66191 -0.680121
2003-04-01 09:28:32 51°16.02 2°39.694 18.14567 1.13779 7.661422 -0.680121
2003-04-01 09:29:33 51°16.004 2°39.702 18.729985 1.137581 7.660036 -0.680121
2003-04-01 09:30:32 51°15.989 2°39.711 17.921167 1.137476 7.659547 -0.646411
2003-04-01 09:31:32 51°15.975 2°39.718 18.70942 1.137686 7.661341 -0.680121
2003-04-01 09:32:32 51°15.961 2°39.728 18.141681 1.137581 7.66058 -0.646411
2003-04-01 09:33:32 51°15.946 2°39.736 18.284569 1.137476 7.660228 -0.680121
2003-04-01 09:34:32 51°15.933 2°39.75 18.255949 1.137476 7.660228 -0.646411
2003-04-01 09:35:31 51°15.92 2°39.765 18.364396 1.137058 7.657456 -0.680121
2003-04-01 09:36:32 51°15.905 2°39.776 18.744405 1.137267 7.659114 -0.680121
2003-04-01 09:37:32 51°15.891 2°39.788 18.377401 1.136953 7.656968 -0.646411
2003-04-01 09:38:32 51°15.876 2°39.8 18.110839 1.137058 7.657864 -0.646411
2003-04-01 09:39:31 51°15.865 2°39.813 18.219181 1.137058 7.658001 -0.680121
2003-04-01 09:40:32 51°15.852 2°39.827 18.327644 1.137058 7.658001 -0.646411
2003-04-01 09:41:32 51°15.843 2°39.843 18.367544 1.136953 7.657376 -0.646411
2003-04-01 09:42:32 51°15.833 2°39.856 18.509142 1.136953 7.657648 -0.680121
2003-04-01 09:43:32 51°15.824 2°39.869 18.582972 1.137058 7.658409 -0.680121
2003-04-01 09:44:32 51°15.807 2°39.888 18.351015 1.137058 7.658681 -0.680121
2003-04-01 09:45:32 51°15.78 2°39.906 18.729614 1.136639 7.655637 -0.646411
2003-04-01 09:46:32 51°15.75 2°39.923 18.226569 1.137058 7.659225 -0.646411
2003-04-01 09:47:32 51°15.721 2°39.939 18.026225 1.136953 7.6586 -0.680121
2003-04-01 09:48:32 51°15.692 2°39.957 18.371603 1.136744 7.656942 -0.680121
2003-04-01 09:49:32 51°15.666 2°39.976 18.307789 1.13643 7.654659 -0.646411
2003-04-01 09:50:32 51°15.638 2°40.005 18.312018 1.136534 7.655556 -0.680121
2003-04-01 09:51:31 51°15.588 2°40.126 18.553689 1.136325 7.65417 -0.680121
2003-04-01 09:52:32 51°15.567 2°40.318 18.114415 1.136325 7.654306 -0.646411
2003-04-01 09:53:33 51°15.553 2°40.528 18.793866 1.136534 7.6561 -0.680121
2003-04-01 09:54:32 51°15.544 2°40.739 18.457494 1.136534 7.656236 -0.646411
2003-04-01 09:55:32 51°15.537 2°40.955 18.593625 1.136534 7.656236 -0.680121
2003-04-01 09:56:31 51°15.533 2°41.168 18.630525 1.13643 7.655611 -0.680121
2003-04-01 09:57:32 51°15.529 2°41.392 18.632382 1.13622 7.654089 -0.680121
2003-04-01 09:58:33 51°15.525 2°41.618 18.39674 1.136325 7.65485 -0.680121
2003-04-01 09:59:32 51°15.521 2°41.839 18.83675 1.13622 7.653953 -0.646411
2003-04-01 10:00:33 51°15.519 2°42.067 18.669633 1.136325 7.654714 -0.680121
2003-04-01 10:01:33 51°15.515 2°42.291 18.67219 1.136115 7.653192 -0.680121
2003-04-01 10:02:33 51°15.51 2°42.514 18.404647 1.136115 7.653328 -0.680121
2003-04-01 10:03:33 51°15.507 2°42.738 19.080875 1.13622 7.654089 -0.680121
2003-04-01 10:04:33 51°15.502 2°42.961 18.711934 1.136011 7.652703 -0.646411
2003-04-01 10:05:33 51°15.495 2°43.184 18.779991 1.136011 7.652567 -0.680121
2003-04-01 10:06:33 51°15.489 2°43.407 18.477389 1.136115 7.653464 -0.680121
2003-04-01 10:07:33 51°15.484 2°43.63 18.883843 1.136115 7.653328 -0.680121
2003-04-01 10:08:32 51°15.478 2°43.849 19.120469 1.13622 7.654361 -0.646411
2003-04-01 10:09:33 51°15.474 2°44.075 18.954607 1.136115 7.653464 -0.680121
2003-04-01 10:10:33 51°15.469 2°44.301 18.821649 1.135906 7.651806 -0.680121
2003-04-01 10:11:33 51°15.466 2°44.528 19.058609 1.135906 7.65167 -0.680121
2003-04-01 10:12:32 51°15.466 2°44.752 18.722897 1.135906 7.65167 -0.680121
2003-04-01 10:13:31 51°15.464 2°44.976 18.8249 1.135906 7.651398 -0.646411
2003-04-01 10:14:33 51°15.464 2°45.211 19.061316 1.135906 7.651398 -0.680121
2003-04-01 10:15:33 51°15.461 2°45.442 18.658291 1.136011 7.652159 -0.71383
2003-04-01 10:16:33 51°15.465 2°45.674 18.828109 1.136011 7.652023 -0.680121
2003-04-01 10:17:33 51°15.47 2°45.907 18.49058 1.135906 7.651126 -0.646411
2003-04-01 10:18:33 51°15.475 2°46.141 18.931438 1.136011 7.651887 -0.680121
2003-04-01 10:19:33 51°15.48 2°46.37 18.730521 1.135906 7.651126 -0.680121
2003-04-01 10:20:33 51°15.488 2°46.605 18.731798 1.135801 7.650229 -0.680121
2003-04-01 10:21:33 51°15.494 2°46.838 18.698744 1.136011 7.651615 -0.680121
2003-04-01 10:22:33 51°15.5 2°47.07 18.869903 1.135801 7.649957 -0.680121
2003-04-01 10:23:32 51°15.505 2°47.301 18.804733 1.135906 7.650718 -0.646411
2003-04-01 10:24:33 51°15.509 2°47.538 18.806833 1.136011 7.651343 -0.680121
2003-04-01 10:25:33 51°15.512 2°47.772 18.740945 1.135801 7.649685 -0.680121
2003-04-01 10:26:33 51°15.514 2°48.007 19.046058 1.136011 7.650935 -0.646411
2003-04-01 10:27:33 51°15.517 2°48.242 18.712264 1.135906 7.650174 -0.71383
2003-04-01 10:28:33 51°15.519 2°48.478 18.949883 1.135906 7.650038 -0.680121
2003-04-01 10:29:33 51°15.52 2°48.716 18.817739 1.136011 7.650799 -0.680121
2003-04-01 10:30:33 51°15.524 2°48.952 18.854809 1.135906 7.649767 -0.680121
2003-04-01 10:31:32 51°15.527 2°49.185 18.519228 1.135906 7.649495 -0.680121
2003-04-01 10:32:31 51°15.53 2°49.419 18.927616 1.135906 7.649359 -0.680121
2003-04-01 10:33:33 51°15.533 2°49.665 18.458983 1.136115 7.651016 -0.680121
2003-04-01 10:34:33 51°15.537 2°49.906 18.700599 1.136115 7.65088 -0.680121
2003-04-01 10:35:33 51°15.541 2°50.15 18.535924 1.13622 7.651369 -0.646411
2003-04-01 10:36:33 51°15.551 2°50.397 19.179573 1.13622 7.651234 -0.680121
2003-04-01 10:37:33 51°15.559 2°50.645 18.611995 1.136115 7.650473 -0.680121
2003-04-01 10:38:33 51°15.566 2°50.891 19.054303 1.136115 7.650201 -0.680121
2003-04-01 10:39:33 51°15.537 2°51.126 18.65528 1.136011 7.64944 -0.680121
2003-04-01 10:40:32 51°15.494 2°51.347 18.830002 1.136325 7.651587 -0.646411
2003-04-01 10:41:32 51°15.448 2°51.571 18.701217 1.136115 7.649793 -0.680121
2003-04-01 10:42:32 51°15.381 2°51.84 -999 1.136011 7.648897 -0.680121
2003-04-01 10:43:33 51°15.301 2°52.163 -999 1.136115 7.649386 -0.646411
2003-04-01 10:44:33 51°15.221 2°52.481 -999 1.136325 7.650771 -0.680121
2003-04-01 10:45:31 51°15.143 2°52.788 -999 1.13622 7.649739 -0.680121
2003-04-01 10:46:32 51°15.037 2°53.093 -999 1.13622 7.649331 -0.680121
2003-04-01 10:47:32 51°14.934 2°53.381 -999 1.136325 7.650228 -0.646411
2003-04-01 10:48:32 51°14.84 2°53.672 -999 1.136534 7.652021 -0.680121
2003-04-01 10:49:32 51°14.747 2°53.96 -999 1.136429 7.650581 -0.680121
2003-04-01 10:50:32 51°14.648 2°54.246 -999 1.136429 7.650717 -0.646411
2003-04-01 10:51:31 51°14.559 2°54.535 -999 1.136429 7.650581 -0.680121
2003-04-01 10:52:32 51°14.462 2°54.834 -999 1.136429 7.650445 -0.680121
2003-04-01 10:53:32 51°14.357 2°55.115 -999 1.136639 7.651694 -0.646411
2003-04-01 10:54:32 51°14.243 2°55.296 -999 1.136639 7.651558 -0.646411
2003-04-01 10:55:32 51°14.156 2°55.38 -999 1.136639 7.651558 -0.680121
2003-04-01 10:56:32 51°14.08 2°55.437 -999 1.136639 7.651151 -0.680121
2003-04-01 10:57:32 51°14.003 2°55.497 -999 1.136639 7.650879 -0.646411
2003-04-01 10:58:32 51°13.924 2°55.558 -999 1.136743 7.651368 -0.680121
2003-04-01 10:59:32 51°13.845 2°55.618 -999 1.136743 7.651096 -0.680121
2003-04-01 11:00:31 51°13.775 2°55.686 -999 1.136743 7.650825 -0.646411
2003-04-01 11:01:32 51°13.714 2°55.771 -999 1.136848 7.651449 -0.646411
2003-04-01 11:02:31 51°13.673 2°55.86 -999 1.136848 7.651042 -0.680121
2003-04-01 11:03:32 51°13.639 2°55.947 -999 1.136953 7.651531 -0.680121
2003-04-01 11:04:32 51°13.617 2°56.028 -999 1.136953 7.651259 -0.680121